Terminal Aerodrome Forecast
Issued by NWS

Home | Current Version | Previous Version | Graphics & Text | Print | Product List | Glossary On
Versions: 1 2 3 4 5 6 7 8 9 10 11 12
000
FTUS43 KABR 192324
TAFPIR
TAF
KPIR 192324Z 2000/2024 04015G23KT P6SM SCT250
     FM200300 02008KT P6SM SCT250
     FM201400 08008KT P6SM SKC=

USA.gov is the U.S. government's official web portal to all federal, state and local government web resources and services.